This is the latest recevied weather packets stored in our database for station/object N4VTB-13. If no packets are shown the sender has not sent any weather packets the latest 10 day(s).
| Time | Temp. | Humidity | Pressure | Rain* | Wind** | Luminosity | Snow |
|---|---|---|---|---|---|---|---|
| 1777281075 | 8.89° C | 85% | 1014.1 hPa | 0 mm | - | 0 W/m² | - |
| 1777279875 | 8.89° C | 83% | 1014.1 hPa | 0 mm | - | 0 W/m² | - |
| 1777276275 | 9.44° C | 73% | 1013.6 hPa | 0 mm | - | 0 W/m² | - |
| 1777273875 | 10° C | 56% | 1013.2 hPa | 0 mm | - | 0 W/m² | - |
| 1777272696 | 10.56° C | 54% | 1013 hPa | 0 mm | - | 0 W/m² | - |
| 1777269676 | 11.11° C | 56% | 1012.5 hPa | 0 mm | - | 0 W/m² | - |
| 1777266696 | 12.22° C | 59% | 1012.2 hPa | 0 mm | - | 0 W/m² | - |
| 1777265496 | 12.78° C | 54% | 1012 hPa | 0 mm | - | 0 W/m² | - |
| 1777262476 | 13.33° C | 39% | 1011.5 hPa | 0 mm | - | 0 W/m² | - |
| 1777260676 | 13.89° C | 36% | 1011 hPa | 0 mm | - | 0 W/m² | - |
| 1777259476 | 14.44° C | 36% | 1010.8 hPa | 0 mm | - | 0 W/m² | - |
| 1777254675 | 17.78° C | 31% | 1010.2 hPa | 0 mm | - | 35 W/m² | - |
| 1777249875 | 19.44° C | 23% | 1009.9 hPa | 0 mm | - | 40 W/m² | - |
| 1777249275 | 19.44° C | 25% | 1009.9 hPa | 0 mm | - | 42 W/m² | - |
| 1777247475 | 19.44° C | 25% | 1009.7 hPa | 0 mm | - | 65 W/m² | - |
| 1777245077 | 19.44° C | 29% | 1010 hPa | 0 mm | - | 60 W/m² | - |
| 1777240877 | 18.89° C | 33% | 1010.2 hPa | 0 mm | - | 70 W/m² | - |
| 1777237277 | 18.33° C | 36% | 1010.2 hPa | 0 mm | - | 213 W/m² | - |
| 1777236677 | 18.89° C | 34% | 1010.2 hPa | 0 mm | - | 174 W/m² | - |
| 1777236077 | 19.44° C | 32% | 1010.2 hPa | 0 mm | - | 201 W/m² | - |
| 1777235477 | 19.44° C | 31% | 1010.3 hPa | 0 mm | - | 844 W/m² | - |
| 1777233117 | 19.44° C | 34% | 1010.4 hPa | 0 mm | - | 830 W/m² | - |
| 1777228297 | 18.89° C | 38% | 1010.5 hPa | 0 mm | - | 761 W/m² | - |
| 1777224076 | 15.56° C | 41% | 1010.6 hPa | 0 mm | - | 631 W/m² | - |
| 1777222276 | 15° C | 45% | 1010.6 hPa | 0 mm | - | 554 W/m² | - |
* Rain latest hour (hover to see other rain measurements)
** Current wind speed in m/s (hover to see current wind gust speed)